Sioux Arrow — WAG6168 — position and weather

sailwx.info

Track history (hours):
 
Tides and Currents Weather Stations Pressure Air Temp Water Temp Dewpoint Dewpoint Depression Visibility Wind Speed Wind Dir Waves Ship Positions

Sioux Arrow

Owner: HARMON, JACK L, PORT ANGELES, WA. More information available from US FCC via Universal Licensing System and Coast Guard Vessel Documentation Center.

Last reported at 2015-May-25 01:33 UTC. Time now 2015-May-25 07:22 UTC.
Position N 48°44' W 122°31'.

Type: Port tender. MMSI: 366973370.

Date/timePositionNaut miles runAvg speedWind from/ knotsBaromVisibWave heightAir tempDewpointWater temp
2015-May-25 01:33N 48°44' W 122°31'0 0.0
2015-May-25 00:29N 48°44' W 122°31'1 1.0
2015-May-24 23:04N 48°45' W 122°31'815.0
2015-May-24 22:33N 48°38' W 122°33'7 7.3
2015-May-24 21:33N 48°31' W 122°37'0 0.0
2015-May-24 20:33N 48°31' W 122°37'0 0.0
2015-May-24 19:33N 48°31' W 122°37'3 3.0
2015-May-24 18:33N 48°33' W 122°34'3 3.4
2015-May-24 17:33N 48°36' W 122°33'0 0.3
2015-May-24 16:33N 48°36' W 122°32'0 0.4
2015-May-24 15:33N 48°36' W 122°32'5 5.0
2015-May-24 14:33N 48°31' W 122°35'1 1.1
2015-May-24 13:34N 48°31' W 122°37'0 0.0
2015-May-24 12:33N 48°31' W 122°37'5 4.8
2015-May-24 11:34N 48°35' W 122°34'5 4.8
2015-May-24 10:33N 48°31' W 122°37'0 0.0
2015-May-23 22:33N 48°31' W 122°36'3 2.9
2015-May-23 21:32N 48°33' W 122°34'2 2.1
2015-May-23 20:33N 48°31' W 122°35'1 1.3
2015-May-23 19:33N 48°31' W 122°37'0 0.0
2015-May-23 18:33N 48°31' W 122°36'4 4.0
2015-May-23 17:33N 48°34' W 122°34'4 4.1
2015-May-23 16:34N 48°31' W 122°36'3 0.5
2015-May-23 10:32N 48°34' W 122°34'3 3.4
2015-May-23 09:34N 48°31' W 122°36'1 0.1
2015-May-22 23:33N 48°31' W 122°35'1 1.1
2015-May-22 22:33N 48°31' W 122°36'0 0.1
2015-May-22 21:33N 48°31' W 122°36'0 0.0
2015-May-22 20:33N 48°31' W 122°36'0 0.0
2015-May-22 19:33N 48°31' W 122°36'0 0.0
2015-May-22 18:33N 48°31' W 122°36'0 0.0
2015-May-22 17:33N 48°31' W 122°36'0 0.0
2015-May-22 16:33N 48°31' W 122°36'0 0.0
2015-May-22 15:33N 48°31' W 122°36'5 5.1
2015-May-22 14:33N 48°36' W 122°34'5 5.1
2015-May-22 13:33N 48°31' W 122°36'0 0.0
2015-May-22 12:34N 48°31' W 122°36'0 0.0
2015-May-22 04:04N 48°31' W 122°36'0 0.0
2015-May-22 03:33N 48°31' W 122°36'1 0.0
2015-May-21 14:34N 48°31' W 122°36'1 0.0
2015-May-20 23:14N 48°31' W 122°36'0 0.0
2015-May-20 22:33N 48°31' W 122°36'0 0.0
2015-May-20 21:33N 48°31' W 122°36'0 0.0
2015-May-20 20:33N 48°31' W 122°36'0 0.0
2015-May-20 19:33N 48°31' W 122°36'3 2.9
2015-May-20 18:33N 48°33' W 122°34'3 3.0
2015-May-20 17:33N 48°31' W 122°37'0 0.1
2015-May-20 16:33N 48°31' W 122°36'0 0.2
2015-May-20 15:34N 48°31' W 122°36'0 0.3
2015-May-20 14:33N 48°31' W 122°36'0 0.0
2015-May-20 13:33N 48°31' W 122°36'0 0.0
2015-May-20 12:33N 48°31' W 122°36'0 0.0
2015-May-20 11:33N 48°31' W 122°36'0 0.0
2015-May-20 10:33N 48°31' W 122°36'0 0.0
2015-May-20 09:33N 48°31' W 122°36'0 0.0
2015-May-20 08:48N 48°31' W 122°36'0 0.0
2015-May-20 08:33N 48°31' W 122°36'0 0.0
2015-May-20 07:33N 48°31' W 122°36'0 0.0
2015-May-20 06:33N 48°31' W 122°36'0 0.0
2015-May-20 05:33N 48°31' W 122°36'0 0.0
2015-May-20 04:33N 48°31' W 122°36'0 0.0
2015-May-20 03:33N 48°31' W 122°36'0 0.0
2015-May-20 02:33N 48°31' W 122°36'0 0.0
2015-May-20 01:33N 48°31' W 122°36'0 0.0
2015-May-20 00:33N 48°31' W 122°36'1 0.9
2015-May-19 23:33N 48°31' W 122°35'1 0.9
2015-May-19 22:33N 48°31' W 122°36'0 0.0
2015-May-19 21:33N 48°31' W 122°36'0 0.0
2015-May-19 20:33N 48°31' W 122°36'0 0.0
2015-May-19 19:33N 48°31' W 122°36'0 0.0
2015-May-19 18:33N 48°31' W 122°36'0 0.0
2015-May-18 22:20N 48°31' W 122°36'0 0.1
2015-May-18 19:33N 48°31' W 122°36'0 0.0
2015-May-18 18:24N 48°31' W 122°36'0 0.0
2015-May-18 17:32N 48°31' W 122°36'2 1.5
2015-May-18 16:32N 48°31' W 122°34'1 1.5
2015-May-18 15:33N 48°31' W 122°36'0 0.0
2015-May-18 14:27N 48°31' W 122°36'2 0.1
2015-May-18 01:21N 48°32' W 122°35'2 0.5
2015-May-17 22:18N 48°31' W 122°36'0 0.0
2015-May-17 21:20N 48°31' W 122°36'0 0.0
2015-May-17 19:07N 48°31' W 122°36'0 0.0
2015-May-17 18:31N 48°31' W 122°36'0 0.0
2015-May-17 17:04N 48°31' W 122°36'0 0.0
2015-May-17 16:10N 48°31' W 122°36'0 0.0
2015-May-17 11:25N 48°31' W 122°36'0 0.0
2015-May-17 10:21N 48°31' W 122°36'5 0.4
2015-May-16 23:33N 48°35' W 122°34'4 3.7
2015-May-16 22:33N 48°31' W 122°35'5 1.2
2015-May-16 18:32N 48°36' W 122°32'0 0.4
2015-May-16 17:12N 48°36' W 122°33'0 0.6
2015-May-16 16:27N 48°35' W 122°33'4 4.3
2015-May-16 15:26N 48°31' W 122°35'1 0.1
2015-May-15 20:10N 48°31' W 122°37'0 0.0
2015-May-15 19:33N 48°31' W 122°37'1 0.1
2015-May-15 09:33N 48°31' W 122°35'1 0.9
2015-May-15 08:33N 48°31' W 122°36'0 0.0
2015-May-15 07:33N 48°31' W 122°36'0 0.0
2015-May-15 06:33N 48°31' W 122°36'  
Track history (hours):
 
Tides and Currents Weather Stations Pressure Air Temp Water Temp Dewpoint Dewpoint Depression Visibility Wind Speed Wind Dir Waves Ship Positions

Sioux Arrow

Owner: HARMON, JACK L, PORT ANGELES, WA. More information available from US FCC via Universal Licensing System and Coast Guard Vessel Documentation Center.

Last reported at 2015-May-25 01:33 UTC. Time now 2015-May-25 07:22 UTC.
Position N 48°44' W 122°31'.

Type: Port tender. MMSI: 366973370.

Date/timePositionNaut miles runAvg speedWind from/ knotsBaromVisibWave heightAir tempDewpointWater temp
2015-May-25 01:33N 48°44' W 122°31'0 0.0
2015-May-25 00:29N 48°44' W 122°31'1 1.0
2015-May-24 23:04N 48°45' W 122°31'815.0
2015-May-24 22:33N 48°38' W 122°33'7 7.3
2015-May-24 21:33N 48°31' W 122°37'0 0.0
2015-May-24 20:33N 48°31' W 122°37'0 0.0
2015-May-24 19:33N 48°31' W 122°37'3 3.0
2015-May-24 18:33N 48°33' W 122°34'3 3.4
2015-May-24 17:33N 48°36' W 122°33'0 0.3
2015-May-24 16:33N 48°36' W 122°32'0 0.4
2015-May-24 15:33N 48°36' W 122°32'5 5.0
2015-May-24 14:33N 48°31' W 122°35'1 1.1
2015-May-24 13:34N 48°31' W 122°37'0 0.0
2015-May-24 12:33N 48°31' W 122°37'5 4.8
2015-May-24 11:34N 48°35' W 122°34'5 4.8
2015-May-24 10:33N 48°31' W 122°37'0 0.0
2015-May-23 22:33N 48°31' W 122°36'3 2.9
2015-May-23 21:32N 48°33' W 122°34'2 2.1
2015-May-23 20:33N 48°31' W 122°35'1 1.3
2015-May-23 19:33N 48°31' W 122°37'0 0.0
2015-May-23 18:33N 48°31' W 122°36'4 4.0
2015-May-23 17:33N 48°34' W 122°34'4 4.1
2015-May-23 16:34N 48°31' W 122°36'3 0.5
2015-May-23 10:32N 48°34' W 122°34'3 3.4
2015-May-23 09:34N 48°31' W 122°36'1 0.1
2015-May-22 23:33N 48°31' W 122°35'1 1.1
2015-May-22 22:33N 48°31' W 122°36'0 0.1
2015-May-22 21:33N 48°31' W 122°36'0 0.0
2015-May-22 20:33N 48°31' W 122°36'0 0.0
2015-May-22 19:33N 48°31' W 122°36'0 0.0
2015-May-22 18:33N 48°31' W 122°36'0 0.0
2015-May-22 17:33N 48°31' W 122°36'0 0.0
2015-May-22 16:33N 48°31' W 122°36'0 0.0
2015-May-22 15:33N 48°31' W 122°36'5 5.1
2015-May-22 14:33N 48°36' W 122°34'5 5.1
2015-May-22 13:33N 48°31' W 122°36'0 0.0
2015-May-22 12:34N 48°31' W 122°36'0 0.0
2015-May-22 04:04N 48°31' W 122°36'0 0.0
2015-May-22 03:33N 48°31' W 122°36'1 0.0
2015-May-21 14:34N 48°31' W 122°36'1 0.0
2015-May-20 23:14N 48°31' W 122°36'0 0.0
2015-May-20 22:33N 48°31' W 122°36'0 0.0
2015-May-20 21:33N 48°31' W 122°36'0 0.0
2015-May-20 20:33N 48°31' W 122°36'0 0.0
2015-May-20 19:33N 48°31' W 122°36'3 2.9
2015-May-20 18:33N 48°33' W 122°34'3 3.0
2015-May-20 17:33N 48°31' W 122°37'0 0.1
2015-May-20 16:33N 48°31' W 122°36'0 0.2
2015-May-20 15:34N 48°31' W 122°36'0 0.3
2015-May-20 14:33N 48°31' W 122°36'0 0.0
2015-May-20 13:33N 48°31' W 122°36'0 0.0
2015-May-20 12:33N 48°31' W 122°36'0 0.0
2015-May-20 11:33N 48°31' W 122°36'0 0.0
2015-May-20 10:33N 48°31' W 122°36'0 0.0
2015-May-20 09:33N 48°31' W 122°36'0 0.0
2015-May-20 08:48N 48°31' W 122°36'0 0.0
2015-May-20 08:33N 48°31' W 122°36'0 0.0
2015-May-20 07:33N 48°31' W 122°36'0 0.0
2015-May-20 06:33N 48°31' W 122°36'0 0.0
2015-May-20 05:33N 48°31' W 122°36'0 0.0
2015-May-20 04:33N 48°31' W 122°36'0 0.0
2015-May-20 03:33N 48°31' W 122°36'0 0.0
2015-May-20 02:33N 48°31' W 122°36'0 0.0
2015-May-20 01:33N 48°31' W 122°36'0 0.0
2015-May-20 00:33N 48°31' W 122°36'1 0.9
2015-May-19 23:33N 48°31' W 122°35'1 0.9
2015-May-19 22:33N 48°31' W 122°36'0 0.0
2015-May-19 21:33N 48°31' W 122°36'0 0.0
2015-May-19 20:33N 48°31' W 122°36'0 0.0
2015-May-19 19:33N 48°31' W 122°36'0 0.0
2015-May-19 18:33N 48°31' W 122°36'0 0.0
2015-May-18 22:20N 48°31' W 122°36'0 0.1
2015-May-18 19:33N 48°31' W 122°36'0 0.0
2015-May-18 18:24N 48°31' W 122°36'0 0.0
2015-May-18 17:32N 48°31' W 122°36'2 1.5
2015-May-18 16:32N 48°31' W 122°34'1 1.5
2015-May-18 15:33N 48°31' W 122°36'0 0.0
2015-May-18 14:27N 48°31' W 122°36'2 0.1
2015-May-18 01:21N 48°32' W 122°35'2 0.5
2015-May-17 22:18N 48°31' W 122°36'0 0.0
2015-May-17 21:20N 48°31' W 122°36'0 0.0
2015-May-17 19:07N 48°31' W 122°36'0 0.0
2015-May-17 18:31N 48°31' W 122°36'0 0.0
2015-May-17 17:04N 48°31' W 122°36'0 0.0
2015-May-17 16:10N 48°31' W 122°36'0 0.0
2015-May-17 11:25N 48°31' W 122°36'0 0.0
2015-May-17 10:21N 48°31' W 122°36'5 0.4
2015-May-16 23:33N 48°35' W 122°34'4 3.7
2015-May-16 22:33N 48°31' W 122°35'5 1.2
2015-May-16 18:32N 48°36' W 122°32'0 0.4
2015-May-16 17:12N 48°36' W 122°33'0 0.6
2015-May-16 16:27N 48°35' W 122°33'4 4.3
2015-May-16 15:26N 48°31' W 122°35'1 0.1
2015-May-15 20:10N 48°31' W 122°37'0 0.0
2015-May-15 19:33N 48°31' W 122°37'1 0.1
2015-May-15 09:33N 48°31' W 122°35'1 0.9
2015-May-15 08:33N 48°31' W 122°36'0 0.0
2015-May-15 07:33N 48°31' W 122°36'0 0.0
2015-May-15 06:33N 48°31' W 122°36'  

Dump ship's entire track history